Humidity-temperature Sensor

Selected Measurement Type: Air Temperature

 
Air Temperature [°C]     6 entries per hour
Showing data from 6/6/2022 (00:00:00 Z) to 6/5/2022 (00:01:00 Z)
Previous Next [ Day | 3-Days | 7-Days ]
First Last
Prev [ Day | 3-Days | 7-Days ] Next
First Last

Start Time:     :
End Time:     :     
Time (in GMT) :00 :50 :40 :30 :20 :10
Previous Next [ Day | 3-Days | 7-Days ]
First Last
Prev [ Day | 3-Days | 7-Days ] Next
First Last


123 => good data
MM => data is determined as missing
-- => data not received/configured
Back to Top Back to Top
6/6/2022 00:00 to 23:10 26.13 26.25 26.23 26.17 26.37 26.12
6/5/2022 23:00 to 22:10 26.12 26.25 26.08 26.18 26.14 26.49
6/5/2022 22:00 to 21:10 26.24 26.00 25.86 25.91 25.83 26.01
6/5/2022 21:00 to 20:10 25.85 25.82 25.86 25.94 25.76 26.29
6/5/2022 20:00 to 19:10 26.10 25.89 25.69 25.83 25.85 25.82
6/5/2022 19:00 to 18:10 25.86 25.96 25.88 25.98 26.06 25.94
6/5/2022 18:00 to 17:10 25.89 25.81 25.86 25.95 25.97 26.09
6/5/2022 17:00 to 16:10 26.13 26.04 26.23 26.43 26.11 26.02
6/5/2022 16:00 to 15:10 26.09 26.26 26.27 26.33 26.23 26.18
6/5/2022 15:00 to 14:10 26.36 26.09 26.05 26.06 26.01 26.07
6/5/2022 14:00 to 13:10 26.15 26.22 26.22 26.04 26.04 25.98
6/5/2022 13:00 to 12:10 26.09 26.19 25.97 26.02 25.89 25.97
6/5/2022 12:00 to 11:10 26.04 25.91 25.80 25.80 25.67 25.79
6/5/2022 11:00 to 10:10 25.66 25.87 25.87 25.81 25.79 25.93
6/5/2022 10:00 to 9:10 25.84 25.88 25.92 26.06 26.13 26.04
6/5/2022 09:00 to 8:10 26.01 25.94 25.61 25.74 25.91 26.23
6/5/2022 08:00 to 7:10 26.00 26.08 25.85 25.70 26.02 26.04
6/5/2022 07:00 to 6:10 26.03 26.09 26.28 26.25 26.16 26.06
6/5/2022 06:00 to 5:10 26.31 26.20 26.29 26.42 26.23 26.29
6/5/2022 05:00 to 4:10 26.12 26.13 26.19 26.15 26.03 26.38
6/5/2022 04:00 to 3:10 26.25 26.31 26.27 26.31 26.14 26.40
6/5/2022 03:00 to 2:10 26.18 26.35 26.33 26.40 26.19 26.17
6/5/2022 02:00 to 1:10 26.27 26.32 26.27 26.26 26.20 26.33
6/5/2022 01:00 to 0:10 26.28 26.34 26.37 26.27 26.10 26.34